| time (UTC) | temp C | wind direction | speed KPH | gust KPH | rain 1hr cm | rain 24hr cm | rain mn cm | humidity % | barometer mb |
| 20260507202025 | 15 | 293 | 9.7 | 24.1 | 0.00 | 0.38 | 0.00 | 36 | 1000.6 |
| 20260507201517 | 15 | 315 | 12.9 | 24.1 | 0.00 | 0.38 | 0.00 | 37 | 1000.6 |
| 20260507201025 | 15 | 293 | 11.3 | 20.9 | 0.00 | 0.38 | 0.00 | 37 | 1000.8 |
| 20260507200519 | 15 | 293 | 9.7 | 20.9 | 0.00 | 0.38 | 0.00 | 36 | 1000.8 |
| 20260507200037 | 15 | 315 | 8.0 | 29.0 | 0.00 | 0.41 | 0.00 | 37 | 1000.8 |
| 20260507195517 | 15 | 293 | 11.3 | 22.5 | 0.00 | 0.41 | 0.00 | 40 | 1000.9 |
| 20260507195019 | 15 | 293 | 14.5 | 22.5 | 0.00 | 0.41 | 0.00 | 37 | 1000.9 |
| 20260507194537 | 15 | 293 | 9.7 | 16.1 | 0.00 | 0.41 | 0.00 | 37 | 1000.9 |
| 20260507194025 | 15 | 293 | 6.4 | 17.7 | 0.00 | 0.41 | 0.00 | 37 | 1001.0 |
| 20260507193518 | 15 | 203 | 1.6 | 8.0 | 0.00 | 0.41 | 0.00 | 38 | 1001.0 |
| 20260507193025 | 15 | 293 | 12.9 | 29.0 | 0.00 | 0.41 | 0.00 | 35 | 1001.0 |
| 20260507192545 | 15 | 293 | 12.9 | 25.7 | 0.00 | 0.41 | 0.00 | 38 | 1001.4 |
| 20260507192019 | 15 | 315 | 11.3 | 20.9 | 0.00 | 0.43 | 0.00 | 35 | 1001.4 |
| 20260507191525 | 15 | 293 | 11.3 | 25.7 | 0.00 | 0.43 | 0.00 | 35 | 1001.4 |
| 20260507191019 | 15 | 293 | 8.0 | 20.9 | 0.00 | 0.43 | 0.00 | 35 | 1001.4 |
| 20260507190517 | 15 | 315 | 9.7 | 24.1 | 0.00 | 0.43 | 0.00 | 37 | 1001.4 |
| 20260507190017 | 15 | 315 | 9.7 | 24.1 | 0.00 | 0.46 | 0.00 | 36 | 1001.4 |
| 20260507185525 | 15 | 315 | 8.0 | 16.1 | 0.00 | 0.46 | 0.00 | 41 | 1001.4 |
| 20260507185025 | 15 | 315 | 8.0 | 19.3 | 0.00 | 0.46 | 0.00 | 38 | 1001.4 |
| 20260507184519 | 15 | 293 | 8.0 | 17.7 | 0.00 | 0.46 | 0.00 | 41 | 1001.4 |
| 20260507184025 | 15 | 293 | 9.7 | 20.9 | 0.00 | 0.46 | 0.00 | 43 | 1001.5 |
| 20260507183517 | 15 | 293 | 16.1 | 29.0 | 0.00 | 0.46 | 0.00 | 40 | 1001.5 |
| 20260507183025 | 15 | 293 | 9.7 | 16.1 | 0.00 | 0.46 | 0.00 | 43 | 1001.5 |
| 20260507182519 | 15 | 293 | 12.9 | 30.6 | 0.00 | 0.46 | 0.00 | 41 | 1001.6 |
| 20260507182016 | 15 | 315 | 6.4 | 14.5 | 0.00 | 0.46 | 0.00 | 42 | 1001.6 |
| 20260507181525 | 15 | 293 | 8.0 | 24.1 | 0.00 | 0.46 | 0.00 | 42 | 1001.6 |
| 20260507181016 | 15 | 293 | 12.9 | 24.1 | 0.00 | 0.46 | 0.00 | 39 | 1001.7 |
| 20260507180517 | 15 | 315 | 12.9 | 32.2 | 0.00 | 0.46 | 0.00 | 42 | 1001.7 |
| 20260507180025 | 15 | 293 | 6.4 | 20.9 | 0.00 | 0.46 | 0.00 | 39 | 1001.7 |
| 20260507175525 | 15 | 293 | 4.8 | 9.7 | 0.00 | 0.46 | 0.00 | 39 | 1001.6 |
| 20260507175025 | 15 | 315 | 14.5 | 24.1 | 0.00 | 0.46 | 0.00 | 40 | 1001.6 |
| 20260507174525 | 15 | 315 | 9.7 | 22.5 | 0.00 | 0.46 | 0.00 | 39 | 1001.6 |
| 20260507174025 | 15 | 315 | 8.0 | 19.3 | 0.00 | 0.46 | 0.00 | 39 | 1001.4 |
| 20260507173525 | 15 | 315 | 9.7 | 35.4 | 0.00 | 0.46 | 0.00 | 41 | 1001.4 |
| 20260507173025 | 15 | 293 | 8.0 | 14.5 | 0.00 | 0.46 | 0.00 | 41 | 1001.4 |
| 20260507172525 | 14 | 293 | 14.5 | 22.5 | 0.00 | 0.46 | 0.00 | 39 | 1001.7 |
| 20260507172025 | 14 | 315 | 8.0 | 12.9 | 0.00 | 0.46 | 0.00 | 41 | 1001.7 |
| 20260507171536 | 14 | 293 | 9.7 | 22.5 | 0.00 | 0.46 | 0.00 | 43 | 1001.7 |
| 20260507171016 | 14 | 315 | 17.7 | 27.4 | 0.00 | 0.46 | 0.00 | 45 | 1001.9 |
| 20260507170517 | 14 | 315 | 8.0 | 24.1 | 0.00 | 0.46 | 0.00 | 44 | 1001.9 |
| 20260507170017 | 14 | 315 | 17.7 | 27.4 | 0.00 | 0.46 | 0.00 | 42 | 1001.9 |
| 20260507165517 | 14 | 315 | 12.9 | 25.7 | 0.00 | 0.46 | 0.00 | 43 | 1002.0 |
| 20260507165016 | 14 | 293 | 11.3 | 27.4 | 0.00 | 0.46 | 0.00 | 44 | 1002.1 |
| 20260507164516 | 14 | 315 | 8.0 | 19.3 | 0.00 | 0.46 | 0.00 | 44 | 1002.1 |
| 20260507164018 | 14 | 315 | 6.4 | 12.9 | 0.00 | 0.46 | 0.00 | 46 | 1002.3 |
| 20260507163525 | 14 | 293 | 8.0 | 16.1 | 0.00 | 0.46 | 0.00 | 45 | 1002.3 |
| 20260507163025 | 13 | 315 | 17.7 | 25.7 | 0.00 | 0.46 | 0.00 | 46 | 1002.3 |
| 20260507162517 | 14 | 293 | 14.5 | 25.7 | 0.00 | 0.46 | 0.00 | 46 | 1002.4 |
| 20260507162116 | 14 | 293 | 9.7 | 20.9 | 0.00 | 0.46 | 0.00 | 46 | 1002.4 |
| 20260507161525 | 14 | 293 | 9.7 | 19.3 | 0.00 | 0.46 | 0.00 | 46 | 1002.4 |
| 20260507161018 | 14 | 270 | 3.2 | 11.3 | 0.00 | 0.46 | 0.00 | 45 | 1002.4 |
| 20260507160516 | 13 | 293 | 12.9 | 29.0 | 0.00 | 0.46 | 0.00 | 48 | 1002.4 |
| 20260507160017 | 13 | 293 | 11.3 | 22.5 | 0.00 | 0.46 | 0.00 | 52 | 1002.4 |
| 20260507155517 | 13 | 293 | 17.7 | 33.8 | 0.00 | 0.46 | 0.00 | 51 | 1002.5 |
| 20260507155016 | 13 | 293 | 9.7 | 32.2 | 0.00 | 0.46 | 0.00 | 58 | 1002.5 |
| 20260507154516 | 13 | 315 | 8.0 | 19.3 | 0.00 | 0.46 | 0.00 | 59 | 1002.5 |
| 20260507154017 | 13 | 293 | 6.4 | 20.9 | 0.00 | 0.46 | 0.00 | 59 | 1002.9 |
| 20260507153535 | 13 | 315 | 12.9 | 20.9 | 0.00 | 0.46 | 0.00 | 58 | 1002.9 |
| 20260507153036 | 13 | 293 | 11.3 | 17.7 | 0.00 | 0.46 | 0.00 | 62 | 1002.9 |
| 20260507152517 | 13 | 315 | 12.9 | 22.5 | 0.00 | 0.46 | 0.00 | 63 | 1003.0 |
| 20260507152016 | 13 | 315 | 8.0 | 22.5 | 0.00 | 0.46 | 0.00 | 62 | 1003.0 |
| 20260507151536 | 13 | 293 | 6.4 | 12.9 | 0.00 | 0.46 | 0.00 | 63 | 1003.0 |
| 20260507151016 | 12 | 293 | 4.8 | 12.9 | 0.00 | 0.46 | 0.00 | 62 | 1003.4 |
| 20260507150536 | 12 | 293 | 6.4 | 14.5 | 0.00 | 0.46 | 0.00 | 63 | 1003.4 |
| 20260507150016 | 12 | 315 | 9.7 | 20.9 | 0.00 | 0.46 | 0.00 | 62 | 1003.4 |
| 20260507145518 | 12 | 315 | 16.1 | 24.1 | 0.00 | 0.46 | 0.00 | 63 | 1003.4 |
| 20260507145044 | 13 | 293 | 8.0 | 16.1 | 0.00 | 0.46 | 0.00 | 61 | 1003.4 |
| 20260507144525 | 13 | 293 | 6.4 | 14.5 | 0.00 | 0.46 | 0.00 | 61 | 1003.4 |
| 20260507144016 | 13 | 293 | 4.8 | 11.3 | 0.00 | 0.46 | 0.00 | 59 | 1003.4 |
| 20260507143516 | 13 | 293 | 3.2 | 9.7 | 0.00 | 0.46 | 0.00 | 58 | 1003.4 |
| 20260507143105 | 13 | 270 | 1.6 | 6.4 | 0.00 | 0.46 | 0.00 | 58 | 1003.4 |
| 20260507142517 | 12 | 293 | 6.4 | 9.7 | 0.00 | 0.46 | 0.00 | 62 | 1003.3 |
| 20260507142016 | 12 | 293 | 8.0 | 12.9 | 0.00 | 0.46 | 0.00 | 62 | 1003.3 |
| 20260507141516 | 12 | 315 | 6.4 | 14.5 | 0.00 | 0.46 | 0.00 | 59 | 1003.3 |
| 20260507141036 | 12 | 315 | 16.1 | 22.5 | 0.00 | 0.46 | 0.00 | 60 | 1003.4 |
| 20260507140536 | 12 | 315 | 14.5 | 24.1 | 0.00 | 0.46 | 0.00 | 58 | 1003.4 |
| 20260507140016 | 12 | 293 | 8.0 | 14.5 | 0.00 | 0.46 | 0.00 | 59 | 1003.4 |
| 20260507135516 | 12 | 293 | 11.3 | 20.9 | 0.00 | 0.46 | 0.00 | 59 | 1003.2 |
| 20260507135024 | 12 | 315 | 3.2 | 11.3 | 0.00 | 0.46 | 0.00 | 58 | 1003.2 |
| 20260507134516 | 12 | 293 | 8.0 | 16.1 | 0.00 | 0.46 | 0.00 | 60 | 1003.2 |
| 20260507134016 | 12 | 293 | 6.4 | 11.3 | 0.00 | 0.46 | 0.00 | 61 | 1003.4 |
| 20260507133516 | 12 | 293 | 8.0 | 14.5 | 0.00 | 0.46 | 0.00 | 61 | 1003.4 |
| 20260507133025 | 12 | 293 | 8.0 | 14.5 | 0.00 | 0.46 | 0.00 | 63 | 1003.4 |
| 20260507132518 | 12 | 293 | 11.3 | 17.7 | 0.00 | 0.46 | 0.00 | 63 | 1003.5 |
| 20260507132038 | 11 | 293 | 11.3 | 19.3 | 0.00 | 0.46 | 0.00 | 63 | 1003.5 |
| 20260507131524 | 11 | 315 | 11.3 | 17.7 | 0.00 | 0.46 | 0.00 | 65 | 1003.5 |
| 20260507131024 | 11 | 315 | 8.0 | 16.1 | 0.00 | 0.46 | 0.00 | 67 | 1003.7 |
| 20260507130524 | 11 | 315 | 9.7 | 14.5 | 0.00 | 0.46 | 0.00 | 66 | 1003.7 |
| 20260507130018 | 11 | 293 | 11.3 | 17.7 | 0.00 | 0.46 | 0.00 | 67 | 1003.7 |
| 20260507125516 | 11 | 293 | 9.7 | 12.9 | 0.00 | 0.46 | 0.00 | 69 | 1003.8 |
| 20260507125016 | 11 | 293 | 8.0 | 14.5 | 0.00 | 0.46 | 0.00 | 68 | 1003.8 |
| 20260507124516 | 11 | 293 | 12.9 | 16.1 | 0.00 | 0.46 | 0.00 | 66 | 1003.8 |
| 20260507124018 | 11 | 315 | 11.3 | 16.1 | 0.00 | 0.46 | 0.00 | 70 | 1003.9 |
| 20260507123604 | 11 | 293 | 11.3 | 16.1 | 0.00 | 0.46 | 0.00 | 71 | 1003.9 |
| 20260507123018 | 11 | 315 | 12.9 | 20.9 | 0.00 | 0.46 | 0.00 | 70 | 1003.9 |
| 20260507122518 | 11 | 315 | 12.9 | 22.5 | 0.00 | 0.46 | 0.00 | 71 | 1003.9 |
| 20260507122018 | 10 | 315 | 11.3 | 19.3 | 0.00 | 0.46 | 0.00 | 75 | 1003.9 |
| 20260507121518 | 10 | 293 | 9.7 | 12.9 | 0.00 | 0.46 | 0.00 | 77 | 1003.9 |
| 20260507121016 | 10 | 293 | 8.0 | 14.5 | 0.00 | 0.46 | 0.00 | 78 | 1003.9 |
| 20260507120518 | 10 | 293 | 6.4 | 9.7 | 0.00 | 0.46 | 0.00 | 79 | 1003.9 |
| 20260507120016 | 10 | 293 | 8.0 | 11.3 | 0.00 | 0.46 | 0.00 | 80 | 1003.9 |
| 20260507115516 | 10 | 293 | 8.0 | 12.9 | 0.00 | 0.46 | 0.00 | 80 | 1003.9 |
| 20260507115025 | 10 | 293 | 6.4 | 11.3 | 0.00 | 0.46 | 0.00 | 80 | 1003.9 |
| 20260507114524 | 10 | 293 | 9.7 | 16.1 | 0.00 | 0.46 | 0.00 | 79 | 1003.9 |
| 20260507114024 | 10 | 293 | 9.7 | 16.1 | 0.00 | 0.46 | 0.00 | 79 | 1003.6 |
| 20260507113524 | 10 | 293 | 9.7 | 14.5 | 0.00 | 0.46 | 0.00 | 80 | 1003.6 |
| 20260507113024 | 10 | 293 | 8.0 | 14.5 | 0.00 | 0.46 | 0.00 | 79 | 1003.6 |
| 20260507112524 | 9 | 293 | 6.4 | 11.3 | 0.00 | 0.46 | 0.00 | 81 | 1003.5 |
| 20260507112016 | 9 | 293 | 6.4 | 11.3 | 0.00 | 0.46 | 0.00 | 81 | 1003.5 |
| 20260507111544 | 9 | 293 | 6.4 | 11.3 | 0.00 | 0.46 | 0.00 | 81 | 1003.5 |
| 20260507111018 | 9 | 293 | 6.4 | 11.3 | 0.00 | 0.46 | 0.00 | 81 | 1003.7 |
| 20260507110536 | 9 | 315 | 8.0 | 11.3 | 0.00 | 0.46 | 0.00 | 81 | 1003.7 |
| 20260507110044 | 9 | 293 | 8.0 | 12.9 | 0.00 | 0.46 | 0.00 | 81 | 1003.7 |
| 20260507105524 | 9 | 293 | 8.0 | 16.1 | 0.00 | 0.46 | 0.00 | 81 | 1003.0 |
| 20260507105024 | 9 | 293 | 9.7 | 14.5 | 0.00 | 0.46 | 0.00 | 82 | 1003.0 |
| 20260507104536 | 9 | 293 | 4.8 | 11.3 | 0.00 | 0.46 | 0.00 | 82 | 1003.0 |
| 20260507104024 | 9 | 293 | 6.4 | 12.9 | 0.00 | 0.46 | 0.00 | 81 | 1003.0 |
| 20260507103518 | 9 | 315 | 4.8 | 16.1 | 0.00 | 0.46 | 0.00 | 82 | 1003.0 |
| 20260507103024 | 9 | 293 | 6.4 | 9.7 | 0.00 | 0.46 | 0.00 | 81 | 1003.0 |
| 20260507102524 | 9 | 293 | 6.4 | 9.7 | 0.00 | 0.46 | 0.00 | 82 | 1003.0 |
| 20260507102024 | 9 | 293 | 6.4 | 11.3 | 0.00 | 0.46 | 0.00 | 81 | 1003.0 |
| 20260507101518 | 9 | 293 | 11.3 | 16.1 | 0.00 | 0.46 | 0.00 | 81 | 1003.0 |
| 20260507101016 | 9 | 293 | 8.0 | 12.9 | 0.00 | 0.46 | 0.00 | 81 | 1002.9 |
| 20260507100524 | 9 | 293 | 8.0 | 11.3 | 0.00 | 0.46 | 0.00 | 83 | 1002.9 |
| 20260507100024 | 9 | 293 | 6.4 | 14.5 | 0.00 | 0.46 | 0.00 | 83 | 1002.9 |
| 20260507095516 | 9 | 293 | 9.7 | 12.9 | 0.00 | 0.46 | 0.00 | 83 | 1002.9 |
| 20260507095016 | 9 | 293 | 12.9 | 16.1 | 0.00 | 0.46 | 0.00 | 83 | 1002.9 |
| 20260507094536 | 9 | 293 | 11.3 | 16.1 | 0.00 | 0.46 | 0.00 | 83 | 1002.9 |
| 20260507094016 | 9 | 315 | 11.3 | 16.1 | 0.00 | 0.46 | 0.00 | 84 | 1003.1 |
| 20260507093544 | 9 | 315 | 4.8 | 9.7 | 0.00 | 0.46 | 0.00 | 83 | 1003.1 |
| 20260507093024 | 9 | 315 | 8.0 | 14.5 | 0.00 | 0.46 | 0.00 | 83 | 1003.1 |
| 20260507092518 | 9 | 315 | 9.7 | 16.1 | 0.00 | 0.46 | 0.00 | 83 | 1003.3 |
| 20260507092016 | 9 | 315 | 9.7 | 17.7 | 0.00 | 0.46 | 0.00 | 83 | 1003.3 |
| 20260507091536 | 9 | 315 | 8.0 | 16.1 | 0.00 | 0.46 | 0.00 | 83 | 1003.3 |
| 20260507091024 | 9 | 315 | 9.7 | 20.9 | 0.00 | 0.46 | 0.00 | 84 | 1002.9 |
| 20260507090524 | 9 | 293 | 9.7 | 16.1 | 0.00 | 0.46 | 0.00 | 85 | 1002.9 |
| 20260507090018 | 9 | 293 | 9.7 | 12.9 | 0.00 | 0.46 | 0.00 | 84 | 1002.9 |
| 20260507085524 | 9 | 293 | 6.4 | 11.3 | 0.00 | 0.46 | 0.00 | 84 | 1003.3 |
| 20260507085018 | 9 | 315 | 8.0 | 11.3 | 0.00 | 0.46 | 0.00 | 85 | 1003.3 |
| 20260507084524 | 9 | 293 | 3.2 | 11.3 | 0.00 | 0.46 | 0.00 | 85 | 1003.3 |
| 20260507084024 | 9 | 315 | 8.0 | 11.3 | 0.00 | 0.46 | 0.00 | 84 | 1002.7 |
| 20260507083524 | 9 | 315 | 4.8 | 12.9 | 0.00 | 0.46 | 0.00 | 85 | 1002.7 |
| 20260507083016 | 9 | 315 | 6.4 | 12.9 | 0.00 | 0.46 | 0.00 | 84 | 1002.7 |
| 20260507082536 | 9 | 315 | 9.7 | 14.5 | 0.00 | 0.46 | 0.00 | 83 | 1002.8 |
| 20260507082024 | 10 | 293 | 8.0 | 9.7 | 0.00 | 0.46 | 0.00 | 83 | 1002.8 |
| 20260507081524 | 10 | 293 | 6.4 | 9.7 | 0.00 | 0.46 | 0.00 | 83 | 1002.8 |
| 20260507081016 | 10 | 293 | 6.4 | 12.9 | 0.00 | 0.46 | 0.00 | 82 | 1002.9 |
| 20260507080515 | 10 | 315 | 8.0 | 12.9 | 0.00 | 0.46 | 0.00 | 81 | 1002.9 |
| 20260507080016 | 10 | 293 | 8.0 | 16.1 | 0.00 | 0.46 | 0.00 | 81 | 1002.9 |
| 20260507075517 | 10 | 293 | 6.4 | 11.3 | 0.00 | 0.46 | 0.00 | 80 | 1003.0 |
| 20260507075044 | 10 | 293 | 11.3 | 19.3 | 0.00 | 0.46 | 0.00 | 81 | 1003.0 |
| 20260507074524 | 10 | 315 | 9.7 | 12.9 | 0.00 | 0.46 | 0.00 | 83 | 1003.0 |
| 20260507074024 | 10 | 293 | 9.7 | 16.1 | 0.00 | 0.46 | 0.00 | 82 | 1002.4 |
| 20260507073516 | 10 | 315 | 6.4 | 19.3 | 0.00 | 0.46 | 0.00 | 84 | 1002.4 |
| 20260507073016 | 10 | 293 | 6.4 | 12.9 | 0.00 | 0.46 | 0.00 | 85 | 1002.4 |
| 20260507072545 | 10 | 293 | 8.0 | 12.9 | 0.00 | 0.46 | 0.00 | 84 | 1002.3 |
| 20260507072018 | 10 | 315 | 6.4 | 8.0 | 0.00 | 0.46 | 0.00 | 85 | 1002.3 |
| 20260507071524 | 10 | 293 | 4.8 | 8.0 | 0.00 | 0.46 | 0.00 | 85 | 1002.3 |
| 20260507071024 | 10 | 293 | 4.8 | 9.7 | 0.00 | 0.46 | 0.00 | 85 | 1002.5 |
| 20260507070516 | 11 | 293 | 9.7 | 14.5 | 0.00 | 0.46 | 0.00 | 84 | 1002.5 |
| 20260507070124 | 11 | 315 | 6.4 | 9.7 | 0.00 | 0.46 | 0.00 | 85 | 1002.5 |
| 20260507065538 | 11 | 293 | 6.4 | 12.9 | 0.00 | 0.46 | 0.00 | 84 | 1002.4 |
| 20260507065024 | 11 | 293 | 4.8 | 9.7 | 0.00 | 0.46 | 0.00 | 84 | 1002.4 |
| 20260507064524 | 11 | 293 | 8.0 | 12.9 | 0.00 | 0.46 | 0.00 | 84 | 1002.4 |
| 20260507064016 | 11 | 293 | 4.8 | 9.7 | 0.00 | 0.46 | 0.00 | 84 | 1002.1 |
| 20260507063516 | 11 | 293 | 1.6 | 6.4 | 0.00 | 0.46 | 0.00 | 84 | 1002.1 |
| 20260507063016 | 11 | 293 | 6.4 | 9.7 | 0.00 | 0.46 | 0.00 | 84 | 1002.1 |
| 20260507062515 | 11 | 293 | 4.8 | 6.4 | 0.00 | 0.46 | 0.00 | 83 | 1002.1 |
| 20260507062015 | 11 | 293 | 3.2 | 6.4 | 0.00 | 0.46 | 0.00 | 83 | 1002.1 |
| 20260507061536 | 11 | 293 | 3.2 | 8.0 | 0.00 | 0.46 | 0.00 | 82 | 1002.1 |
| 20260507061018 | 11 | 315 | 4.8 | 8.0 | 0.00 | 0.46 | 0.00 | 82 | 1002.4 |
| 20260507060519 | 11 | 315 | 4.8 | 9.7 | 0.00 | 0.46 | 0.00 | 81 | 1002.4 |
| 20260507060104 | 11 | 293 | 6.4 | 9.7 | 0.00 | 0.46 | 0.00 | 82 | 1002.4 |
| 20260507055524 | 11 | 293 | 9.7 | 14.5 | 0.00 | 0.46 | 0.00 | 83 | 1002.6 |
| 20260507055017 | 11 | 293 | 6.4 | 9.7 | 0.00 | 0.46 | 0.00 | 81 | 1002.6 |
| 20260507054516 | 11 | 293 | 9.7 | 16.1 | 0.00 | 0.46 | 0.00 | 82 | 1002.6 |
| 20260507054016 | 11 | 315 | 9.7 | 17.7 | 0.00 | 0.46 | 0.00 | 82 | 1002.8 |
| 20260507053523 | 11 | 315 | 6.4 | 12.9 | 0.00 | 0.46 | 0.00 | 82 | 1002.8 |
| 20260507053023 | 11 | 293 | 6.4 | 14.5 | 0.00 | 0.46 | 0.00 | 82 | 1002.8 |
| 20260507052524 | 11 | 293 | 6.4 | 12.9 | 0.00 | 0.46 | 0.00 | 83 | 1002.9 |
| 20260507052024 | 11 | 315 | 4.8 | 9.7 | 0.00 | 0.46 | 0.00 | 83 | 1002.9 |
| 20260507051524 | 11 | 315 | 3.2 | 9.7 | 0.00 | 0.46 | 0.00 | 85 | 1002.9 |
| 20260507051017 | 11 | 293 | 3.2 | 9.7 | 0.00 | 0.46 | 0.00 | 86 | 1002.6 |
| 20260507050516 | 11 | 315 | 1.6 | 6.4 | 0.00 | 0.46 | 0.00 | 87 | 1002.6 |
| 20260507050024 | 11 | 0.0 | 4.8 | 0.00 | 0.46 | 0.00 | 87 | 1002.6 | |
| 20260507045516 | 11 | 293 | 1.6 | 6.4 | 0.00 | 0.46 | 0.00 | 86 | 1002.4 |
| 20260507045016 | 11 | 315 | 6.4 | 9.7 | 0.00 | 0.46 | 0.00 | 86 | 1002.4 |
| 20260507044523 | 11 | 293 | 8.0 | 12.9 | 0.00 | 0.46 | 0.00 | 85 | 1002.4 |
| 20260507044017 | 12 | 293 | 6.4 | 12.9 | 0.00 | 0.46 | 0.00 | 85 | 1002.5 |
| 20260507043518 | 12 | 293 | 6.4 | 12.9 | 0.00 | 0.46 | 0.00 | 85 | 1002.5 |
| 20260507043024 | 12 | 293 | 8.0 | 12.9 | 0.00 | 0.46 | 0.00 | 85 | 1002.5 |
| 20260507042517 | 12 | 293 | 9.7 | 16.1 | 0.00 | 0.46 | 0.00 | 85 | 1002.9 |
| 20260507042024 | 12 | 293 | 11.3 | 17.7 | 0.00 | 0.46 | 0.00 | 87 | 1002.9 |
| 20260507041516 | 12 | 293 | 11.3 | 16.1 | 0.00 | 0.46 | 0.00 | 88 | 1002.9 |
| 20260507041057 | 12 | 293 | 12.9 | 19.3 | 0.00 | 0.46 | 0.00 | 88 | 1002.5 |
| 20260507040524 | 12 | 293 | 9.7 | 16.1 | 0.00 | 0.46 | 0.00 | 88 | 1002.5 |
| 20260507040036 | 12 | 293 | 9.7 | 19.3 | 0.00 | 0.46 | 0.46 | 88 | 1002.5 |
| 20260507035518 | 12 | 293 | 8.0 | 16.1 | 0.00 | 0.46 | 0.46 | 88 | 1002.2 |
| 20260507035018 | 13 | 315 | 8.0 | 16.1 | 0.00 | 0.46 | 0.46 | 88 | 1002.2 |
| 20260507034516 | 13 | 293 | 8.0 | 14.5 | 0.00 | 0.46 | 0.46 | 89 | 1002.2 |
| 20260507034016 | 13 | 293 | 12.9 | 22.5 | 0.00 | 0.46 | 0.46 | 89 | 1001.9 |
| 20260507033524 | 14 | 293 | 14.5 | 19.3 | 0.00 | 0.46 | 0.46 | 89 | 1001.9 |
| 20260507033024 | 14 | 293 | 12.9 | 20.9 | 0.00 | 0.46 | 0.46 | 88 | 1001.9 |
| 20260507032544 | 15 | 293 | 12.9 | 19.3 | 0.00 | 0.46 | 0.46 | 89 | 1001.7 |
| 20260507032044 | 15 | 293 | 14.5 | 22.5 | 0.00 | 0.46 | 0.46 | 89 | 1001.7 |
| 20260507031538 | 15 | 315 | 16.1 | 24.1 | 0.00 | 0.46 | 0.46 | 90 | 1001.7 |
| 20260507031024 | 15 | 315 | 11.3 | 22.5 | 0.00 | 0.46 | 0.46 | 92 | 1001.8 |
| 20260507030524 | 15 | 315 | 12.9 | 24.1 | 0.00 | 0.46 | 0.46 | 92 | 1001.8 |
| 20260507030018 | 15 | 270 | 3.2 | 9.7 | 0.00 | 0.46 | 0.46 | 94 | 1001.8 |
| 20260507025524 | 15 | 270 | 1.6 | 3.2 | 0.00 | 0.46 | 0.46 | 94 | 1001.4 |
| 20260507025036 | 15 | 203 | 1.6 | 3.2 | 0.00 | 0.46 | 0.46 | 94 | 1001.4 |
| 20260507024544 | 15 | 293 | 1.6 | 4.8 | 0.00 | 0.46 | 0.46 | 94 | 1001.4 |
| 20260507024024 | 15 | 225 | 1.6 | 3.2 | 0.00 | 0.46 | 0.46 | 94 | 1001.4 |
| 20260507023518 | 15 | 225 | 1.6 | 3.2 | 0.00 | 0.46 | 0.46 | 94 | 1001.4 |
| 20260507023024 | 15 | 203 | 1.6 | 3.2 | 0.00 | 0.46 | 0.46 | 94 | 1001.4 |
| 20260507022518 | 15 | 225 | 1.6 | 3.2 | 0.00 | 0.46 | 0.46 | 94 | 1001.1 |
| 20260507022018 | 15 | 0.0 | 3.2 | 0.00 | 0.46 | 0.46 | 94 | 1001.1 | |
| 20260507021516 | 15 | 158 | 1.6 | 3.2 | 0.00 | 0.46 | 0.46 | 94 | 1001.1 |
| 20260507021024 | 15 | 158 | 1.6 | 6.4 | 0.00 | 0.46 | 0.46 | 94 | 1001.2 |
| 20260507020524 | 15 | 203 | 1.6 | 3.2 | 0.00 | 0.46 | 0.46 | 94 | 1001.2 |
| 20260507020016 | 15 | 158 | 1.6 | 3.2 | 0.00 | 0.46 | 0.46 | 94 | 1001.2 |
| 20260507015516 | 15 | 158 | 1.6 | 4.8 | 0.00 | 0.46 | 0.46 | 94 | 1001.3 |
| 20260507015044 | 15 | 158 | 1.6 | 6.4 | 0.00 | 0.46 | 0.46 | 94 | 1001.3 |
| 20260507014524 | 15 | 158 | 1.6 | 4.8 | 0.00 | 0.46 | 0.46 | 94 | 1001.3 |
| 20260507014018 | 15 | 158 | 3.2 | 6.4 | 0.00 | 0.46 | 0.46 | 94 | 1001.3 |
| 20260507013538 | 15 | 203 | 1.6 | 6.4 | 0.00 | 0.46 | 0.46 | 94 | 1001.3 |
| 20260507013024 | 15 | 158 | 3.2 | 9.7 | 0.00 | 0.46 | 0.46 | 94 | 1001.3 |
| 20260507012537 | 15 | 158 | 1.6 | 4.8 | 0.00 | 0.46 | 0.46 | 94 | 1001.3 |
| 20260507012018 | 15 | 158 | 1.6 | 6.4 | 0.00 | 0.46 | 0.46 | 94 | 1001.3 |
| 20260507011518 | 15 | 158 | 1.6 | 4.8 | 0.00 | 0.46 | 0.46 | 94 | 1001.3 |
| 20260507011044 | 15 | 158 | 1.6 | 3.2 | 0.00 | 0.46 | 0.46 | 94 | 1001.2 |
| 20260507010516 | 15 | 158 | 1.6 | 4.8 | 0.00 | 0.46 | 0.46 | 94 | 1001.2 |
| 20260507010016 | 15 | 158 | 3.2 | 8.0 | 0.00 | 0.46 | 0.46 | 94 | 1001.2 |
| 20260507005524 | 15 | 158 | 3.2 | 6.4 | 0.00 | 0.46 | 0.46 | 94 | 1001.2 |
| 20260507005016 | 15 | 180 | 3.2 | 8.0 | 0.00 | 0.46 | 0.46 | 94 | 1001.2 |
| 20260507004524 | 15 | 158 | 3.2 | 9.7 | 0.00 | 0.46 | 0.46 | 94 | 1001.2 |
| 20260507004024 | 15 | 180 | 4.8 | 8.0 | 0.00 | 0.46 | 0.46 | 94 | 1000.9 |
| 20260507003524 | 15 | 158 | 3.2 | 8.0 | 0.00 | 0.46 | 0.46 | 94 | 1000.9 |
| 20260507003018 | 15 | 158 | 3.2 | 8.0 | 0.00 | 0.46 | 0.46 | 94 | 1000.9 |
| 20260507002524 | 15 | 158 | 1.6 | 6.4 | 0.03 | 0.46 | 0.46 | 94 | 1000.9 |
| 20260507002024 | 15 | 158 | 3.2 | 8.0 | 0.03 | 0.46 | 0.46 | 94 | 1000.9 |
| 20260507001516 | 15 | 158 | 3.2 | 9.7 | 0.08 | 0.46 | 0.46 | 94 | 1000.9 |
| 20260507001016 | 15 | 158 | 4.8 | 8.0 | 0.13 | 0.46 | 0.46 | 94 | 1000.8 |
| 20260507000518 | 15 | 158 | 3.2 | 8.0 | 0.13 | 0.46 | 0.46 | 94 | 1000.8 |
| 20260507000016 | 15 | 158 | 4.8 | 11.3 | 0.13 | 0.46 | 0.46 | 94 | 1000.8 |
| 20260506235524 | 15 | 158 | 4.8 | 9.7 | 0.15 | 0.46 | 0.46 | 94 | 1000.7 |
| 20260506235024 | 15 | 158 | 3.2 | 6.4 | 0.18 | 0.46 | 0.46 | 94 | 1000.7 |
| 20260506234524 | 15 | 158 | 3.2 | 6.4 | 0.20 | 0.46 | 0.46 | 94 | 1000.7 |
| 20260506234044 | 15 | 158 | 3.2 | 4.8 | 0.23 | 0.46 | 0.46 | 94 | 1000.7 |
| 20260506233524 | 15 | 158 | 3.2 | 6.4 | 0.23 | 0.46 | 0.46 | 94 | 1000.7 |
| 20260506233024 | 15 | 158 | 3.2 | 8.0 | 0.23 | 0.46 | 0.46 | 94 | 1000.7 |
| 20260506232516 | 15 | 158 | 3.2 | 6.4 | 0.20 | 0.43 | 0.43 | 94 | 1000.8 |
| 20260506232016 | 15 | 158 | 3.2 | 6.4 | 0.20 | 0.43 | 0.43 | 93 | 1000.8 |
| 20260506231516 | 15 | 158 | 3.2 | 4.8 | 0.15 | 0.38 | 0.38 | 93 | 1000.8 |
| 20260506231018 | 15 | 158 | 3.2 | 6.4 | 0.13 | 0.33 | 0.33 | 93 | 1000.8 |
| 20260506230524 | 15 | 158 | 3.2 | 6.4 | 0.13 | 0.33 | 0.33 | 93 | 1000.8 |
| 20260506230038 | 15 | 158 | 3.2 | 4.8 | 0.13 | 0.33 | 0.33 | 93 | 1000.8 |
| 20260506225518 | 15 | 158 | 3.2 | 8.0 | 0.15 | 0.30 | 0.30 | 93 | 1000.8 |
| 20260506225044 | 15 | 158 | 3.2 | 6.4 | 0.15 | 0.28 | 0.28 | 93 | 1000.8 |
| 20260506224524 | 15 | 158 | 3.2 | 6.4 | 0.13 | 0.25 | 0.25 | 93 | 1000.8 |
| 20260506224018 | 15 | 158 | 3.2 | 6.4 | 0.10 | 0.23 | 0.23 | 93 | 1000.8 |
| 20260506223516 | 15 | 158 | 4.8 | 9.7 | 0.10 | 0.23 | 0.23 | 92 | 1000.8 |
| 20260506223044 | 15 | 158 | 3.2 | 9.7 | 0.10 | 0.23 | 0.23 | 92 | 1000.8 |
| 20260506222536 | 15 | 158 | 3.2 | 6.4 | 0.10 | 0.23 | 0.23 | 92 | 1000.9 |
| 20260506222018 | 15 | 158 | 4.8 | 9.7 | 0.10 | 0.23 | 0.23 | 92 | 1000.9 |
| 20260506221544 | 15 | 158 | 4.8 | 8.0 | 0.10 | 0.23 | 0.23 | 92 | 1000.9 |
| 20260506221018 | 15 | 158 | 4.8 | 9.7 | 0.08 | 0.20 | 0.20 | 92 | 1001.1 |
| 20260506220518 | 15 | 158 | 3.2 | 6.4 | 0.08 | 0.20 | 0.20 | 91 | 1001.1 |
| 20260506220016 | 15 | 158 | 4.8 | 9.7 | 0.08 | 0.20 | 0.20 | 91 | 1001.1 |
| 20260506215518 | 15 | 158 | 4.8 | 9.7 | 0.03 | 0.15 | 0.15 | 91 | 1000.8 |
| 20260506215018 | 15 | 158 | 3.2 | 6.4 | 0.03 | 0.13 | 0.13 | 91 | 1000.8 |
| 20260506214518 | 15 | 158 | 4.8 | 9.7 | 0.03 | 0.13 | 0.13 | 91 | 1000.8 |
| 20260506214024 | 15 | 158 | 4.8 | 9.7 | 0.03 | 0.13 | 0.13 | 90 | 1001.2 |
| 20260506213515 | 15 | 158 | 6.4 | 12.9 | 0.03 | 0.13 | 0.13 | 90 | 1001.2 |
| 20260506213036 | 15 | 158 | 6.4 | 11.3 | 0.03 | 0.13 | 0.13 | 91 | 1001.2 |
| 20260506212524 | 15 | 158 | 4.8 | 9.7 | 0.03 | 0.13 | 0.13 | 91 | 1001.3 |
| 20260506212024 | 15 | 158 | 4.8 | 8.0 | 0.05 | 0.13 | 0.13 | 91 | 1001.3 |
| 20260506211518 | 15 | 158 | 3.2 | 8.0 | 0.05 | 0.13 | 0.13 | 91 | 1001.3 |
| 20260506211016 | 15 | 158 | 4.8 | 8.0 | 0.05 | 0.13 | 0.13 | 90 | 1001.5 |
| 20260506210524 | 16 | 158 | 6.4 | 11.3 | 0.05 | 0.13 | 0.13 | 90 | 1001.5 |
| 20260506210038 | 16 | 158 | 4.8 | 11.3 | 0.08 | 0.13 | 0.13 | 90 | 1001.5 |
| 20260506205518 | 16 | 158 | 4.8 | 9.7 | 0.08 | 0.13 | 0.13 | 90 | 1001.6 |
| 20260506205024 | 16 | 158 | 6.4 | 16.1 | 0.05 | 0.10 | 0.10 | 89 | 1001.6 |
| 20260506204524 | 16 | 158 | 4.8 | 12.9 | 0.05 | 0.10 | 0.10 | 90 | 1001.6 |
| 20260506204015 | 16 | 158 | 4.8 | 9.7 | 0.05 | 0.10 | 0.10 | 90 | 1001.7 |
| 20260506203516 | 16 | 158 | 4.8 | 11.3 | 0.05 | 0.10 | 0.10 | 89 | 1001.7 |
| 20260506203017 | 16 | 158 | 3.2 | 6.4 | 0.05 | 0.10 | 0.10 | 89 | 1001.7 |
| 20260506202524 | 16 | 158 | 3.2 | 8.0 | 0.05 | 0.10 | 0.10 | 89 | 1001.5 |